Aeroporto :
LOGIN :

Iscrizione | Disclaimer

   EN    FR    IT 

 










Sommario :    VFR   VFR Marginale   IFR   IFR Intensivo   IFR Molto Intensivo
Visibilità : 
Base nubi : 
>= 8 km
>= 3000ft
5 / 8 km
1000 / 3000 ft
1500m / 5 km
500 / 1000 ft
800 / 1500m
200 / 500 ft
< 800m
< 200 ft
Simboli :   Temporali  Nebbia  Neve Forte  Precipitazioni Forti  Vento > 20 kt
SIGMETs :   Varie  Temporali  Ghiacco  Turbolenza  Onda orograficha  Ceneri Vulcaniche






- Altitudine del aeroporto : 1708 ft
- Codice IATA : SJJ


LQSA - Sarajevo

ULTIMO METAR :
  • 061830Z 00000KT 2000 BR FEW009 SCT045 M01/M01 Q1022 NOSIG

METARs OBSOLETI :
  • 061800Z VRB01KT 2000 BR FEW009 SCT045 M01/M01 Q1022 NOSIG
  • 061730Z VRB01KT 2500 BR FEW009 SCT045 M01/M01 Q1022 NOSIG
  • 061700Z 30002KT 2500 BR FEW009 SCT045 M01/M01 Q1023 NOSIG
  • 061630Z 00000KT 2500 BR FEW009 SCT045 M01/M01 Q1023 NOSIG
  • 061600Z VRB01KT 2500 BR FEW009 M01/M02 Q1023 NOSIG

TAF COR TAF LQSA
Valido dal 06 a 18 ore il 07 a 18 ore UTC


061700Z 0618/0718 VRB02KT 2000 BR SCT006 BKN045 TX07/0713Z TNM03/0704Z
TEMPO 0623/0709 4000 RA BKN015 BKN030
PROB30
TEMPO 0703/0706 FZRA
BECMG 0709/0711 6000 NSW



MetMap, La meteo Aeronautica in un colpo d'occhio ! - Copyright ORBIFLY Dicembre 2007 - Disclaimer

ORBIFLY MET'MAP TEAM :

Programmazione e sviluppo : Alexandra Zaïnal
Concezione : Baudouin d'Aumeries
Aiuto per la programmazione : Marc-Olivier Méhu
Supporto tecnico e logistico : Manuel Goepfert
Aiuto per la traduzione : Arnaldo La Scala

Contatto : metmap@orbifly.com




FONTI E CREDITI :

   NOAA